sensor_id;sensor_type;location;lat;lon;timestamp;P1;durP1;ratioP1;P2;durP2;ratioP2
36501;SDS011;25393;46.108;3.390;2022-10-30T00:01:13;2.50;;;1.33;;
36501;SDS011;25393;46.108;3.390;2022-10-30T00:03:39;3.97;;;1.10;;
36501;SDS011;25393;46.108;3.390;2022-10-30T00:06:06;9.20;;;1.67;;
36501;SDS011;25393;46.108;3.390;2022-10-30T00:08:33;3.10;;;1.08;;
36501;SDS011;25393;46.108;3.390;2022-10-30T00:11:07;5.60;;;1.88;;
36501;SDS011;25393;46.108;3.390;2022-10-30T00:13:35;2.70;;;1.27;;
36501;SDS011;25393;46.108;3.390;2022-10-30T00:16:04;6.13;;;1.67;;
36501;SDS011;25393;46.108;3.390;2022-10-30T00:18:33;6.18;;;1.00;;
36501;SDS011;25393;46.108;3.390;2022-10-30T00:21:06;3.80;;;1.60;;
36501;SDS011;25393;46.108;3.390;2022-10-30T00:23:34;5.32;;;1.70;;
36501;SDS011;25393;46.108;3.390;2022-10-30T00:26:02;7.40;;;1.20;;
36501;SDS011;25393;46.108;3.390;2022-10-30T00:28:29;5.28;;;1.88;;
36501;SDS011;25393;46.108;3.390;2022-10-30T00:31:00;4.43;;;1.55;;
36501;SDS011;25393;46.108;3.390;2022-10-30T00:33:27;4.47;;;1.02;;
36501;SDS011;25393;46.108;3.390;2022-10-30T00:35:54;7.43;;;1.40;;
36501;SDS011;25393;46.108;3.390;2022-10-30T00:38:20;6.60;;;1.30;;
36501;SDS011;25393;46.108;3.390;2022-10-30T00:40:47;4.35;;;1.83;;
36501;SDS011;25393;46.108;3.390;2022-10-30T00:43:27;2.60;;;1.15;;
36501;SDS011;25393;46.108;3.390;2022-10-30T00:51:47;4.47;;;1.13;;
36501;SDS011;25393;46.108;3.390;2022-10-30T00:54:16;2.38;;;1.20;;
36501;SDS011;25393;46.108;3.390;2022-10-30T00:56:44;6.05;;;1.48;;
36501;SDS011;25393;46.108;3.390;2022-10-30T00:59:15;2.25;;;1.00;;
36501;SDS011;25393;46.108;3.390;2022-10-30T01:01:45;3.00;;;1.10;;
36501;SDS011;25393;46.108;3.390;2022-10-30T01:04:13;8.75;;;1.40;;
36501;SDS011;25393;46.108;3.390;2022-10-30T01:06:44;2.15;;;1.27;;
36501;SDS011;25393;46.108;3.390;2022-10-30T01:09:14;2.97;;;1.10;;
36501;SDS011;25393;46.108;3.390;2022-10-30T01:11:44;6.20;;;1.95;;
36501;SDS011;25393;46.108;3.390;2022-10-30T01:14:13;11.75;;;1.23;;
36501;SDS011;25393;46.108;3.390;2022-10-30T01:22:29;3.15;;;1.08;;
36501;SDS011;25393;46.108;3.390;2022-10-30T01:31:02;4.20;;;1.50;;
36501;SDS011;25393;46.108;3.390;2022-10-30T01:33:50;4.78;;;1.10;;
36501;SDS011;25393;46.108;3.390;2022-10-30T01:36:28;2.63;;;1.17;;
36501;SDS011;25393;46.108;3.390;2022-10-30T01:38:57;6.82;;;1.85;;
36501;SDS011;25393;46.108;3.390;2022-10-30T01:41:28;6.22;;;1.92;;
36501;SDS011;25393;46.108;3.390;2022-10-30T01:43:56;5.85;;;1.23;;
36501;SDS011;25393;46.108;3.390;2022-10-30T01:50:13;1.48;;;1.17;;
36501;SDS011;25393;46.108;3.390;2022-10-30T01:57:53;6.20;;;1.10;;
36501;SDS011;25393;46.108;3.390;2022-10-30T02:00:27;6.32;;;1.40;;
36501;SDS011;25393;46.108;3.390;2022-10-30T02:02:53;6.22;;;1.40;;
36501;SDS011;25393;46.108;3.390;2022-10-30T02:05:30;2.58;;;0.90;;
36501;SDS011;25393;46.108;3.390;2022-10-30T02:08:02;3.33;;;1.25;;
36501;SDS011;25393;46.108;3.390;2022-10-30T02:10:29;6.72;;;1.27;;
36501;SDS011;25393;46.108;3.390;2022-10-30T02:12:56;5.75;;;1.73;;
36501;SDS011;25393;46.108;3.390;2022-10-30T02:15:23;25.23;;;1.75;;
36501;SDS011;25393;46.108;3.390;2022-10-30T02:17:49;4.65;;;1.38;;
36501;SDS011;25393;46.108;3.390;2022-10-30T02:20:17;3.85;;;1.02;;
36501;SDS011;25393;46.108;3.390;2022-10-30T02:22:45;6.75;;;1.45;;
36501;SDS011;25393;46.108;3.390;2022-10-30T02:25:13;3.67;;;1.33;;
36501;SDS011;25393;46.108;3.390;2022-10-30T02:27:40;5.90;;;1.67;;
36501;SDS011;25393;46.108;3.390;2022-10-30T02:30:07;1.80;;;1.02;;
36501;SDS011;25393;46.108;3.390;2022-10-30T02:32:34;4.22;;;1.20;;
36501;SDS011;25393;46.108;3.390;2022-10-30T02:35:01;5.85;;;1.30;;
36501;SDS011;25393;46.108;3.390;2022-10-30T02:37:27;3.33;;;1.27;;
36501;SDS011;25393;46.108;3.390;2022-10-30T02:39:54;2.45;;;1.02;;
36501;SDS011;25393;46.108;3.390;2022-10-30T02:42:20;5.55;;;1.55;;
36501;SDS011;25393;46.108;3.390;2022-10-30T02:44:48;4.30;;;1.20;;
36501;SDS011;25393;46.108;3.390;2022-10-30T02:47:15;3.97;;;1.15;;
36501;SDS011;25393;46.108;3.390;2022-10-30T02:49:41;4.22;;;1.50;;
36501;SDS011;25393;46.108;3.390;2022-10-30T02:52:08;7.10;;;1.55;;
36501;SDS011;25393;46.108;3.390;2022-10-30T02:54:34;5.63;;;1.67;;
36501;SDS011;25393;46.108;3.390;2022-10-30T02:57:01;4.15;;;1.52;;
36501;SDS011;25393;46.108;3.390;2022-10-30T02:59:28;4.47;;;1.30;;
36501;SDS011;25393;46.108;3.390;2022-10-30T03:01:55;3.90;;;1.85;;
36501;SDS011;25393;46.108;3.390;2022-10-30T03:04:22;4.75;;;1.20;;
36501;SDS011;25393;46.108;3.390;2022-10-30T03:06:48;10.80;;;1.80;;
36501;SDS011;25393;46.108;3.390;2022-10-30T03:09:15;6.43;;;1.85;;
36501;SDS011;25393;46.108;3.390;2022-10-30T03:11:41;2.55;;;1.17;;
36501;SDS011;25393;46.108;3.390;2022-10-30T03:14:09;6.13;;;2.47;;
36501;SDS011;25393;46.108;3.390;2022-10-30T03:16:36;3.70;;;2.17;;
36501;SDS011;25393;46.108;3.390;2022-10-30T03:19:03;9.80;;;2.95;;
36501;SDS011;25393;46.108;3.390;2022-10-30T03:21:30;5.70;;;1.80;;
36501;SDS011;25393;46.108;3.390;2022-10-30T03:23:57;6.97;;;1.52;;
36501;SDS011;25393;46.108;3.390;2022-10-30T03:26:23;5.60;;;1.52;;
36501;SDS011;25393;46.108;3.390;2022-10-30T03:28:50;5.85;;;1.60;;
36501;SDS011;25393;46.108;3.390;2022-10-30T03:31:17;5.00;;;1.63;;
36501;SDS011;25393;46.108;3.390;2022-10-30T03:33:44;4.60;;;1.33;;
36501;SDS011;25393;46.108;3.390;2022-10-30T03:36:12;8.00;;;1.85;;
36501;SDS011;25393;46.108;3.390;2022-10-30T03:38:40;5.32;;;1.60;;
36501;SDS011;25393;46.108;3.390;2022-10-30T03:41:07;9.70;;;1.60;;
36501;SDS011;25393;46.108;3.390;2022-10-30T03:43:34;5.07;;;1.48;;
36501;SDS011;25393;46.108;3.390;2022-10-30T03:46:01;4.32;;;1.38;;
36501;SDS011;25393;46.108;3.390;2022-10-30T03:48:27;5.10;;;1.30;;
36501;SDS011;25393;46.108;3.390;2022-10-30T03:50:55;6.45;;;1.50;;
36501;SDS011;25393;46.108;3.390;2022-10-30T03:53:23;9.27;;;1.33;;
36501;SDS011;25393;46.108;3.390;2022-10-30T03:55:52;4.88;;;1.75;;
36501;SDS011;25393;46.108;3.390;2022-10-30T03:58:22;5.00;;;1.65;;
36501;SDS011;25393;46.108;3.390;2022-10-30T04:00:48;4.07;;;1.42;;
36501;SDS011;25393;46.108;3.390;2022-10-30T04:03:15;7.72;;;1.50;;
36501;SDS011;25393;46.108;3.390;2022-10-30T04:05:41;7.07;;;1.60;;
36501;SDS011;25393;46.108;3.390;2022-10-30T04:08:10;7.53;;;2.47;;
36501;SDS011;25393;46.108;3.390;2022-10-30T04:10:45;8.63;;;1.85;;
36501;SDS011;25393;46.108;3.390;2022-10-30T04:13:13;2.90;;;1.50;;
36501;SDS011;25393;46.108;3.390;2022-10-30T04:15:42;2.13;;;1.63;;
36501;SDS011;25393;46.108;3.390;2022-10-30T04:18:12;10.65;;;2.00;;
36501;SDS011;25393;46.108;3.390;2022-10-30T04:20:40;5.85;;;1.60;;
36501;SDS011;25393;46.108;3.390;2022-10-30T04:23:07;6.90;;;2.17;;
36501;SDS011;25393;46.108;3.390;2022-10-30T04:25:35;7.45;;;2.22;;
36501;SDS011;25393;46.108;3.390;2022-10-30T04:28:02;8.07;;;1.60;;
36501;SDS011;25393;46.108;3.390;2022-10-30T04:30:29;6.22;;;1.80;;
36501;SDS011;25393;46.108;3.390;2022-10-30T04:33:00;4.15;;;1.67;;
36501;SDS011;25393;46.108;3.390;2022-10-30T04:35:32;5.97;;;1.35;;
36501;SDS011;25393;46.108;3.390;2022-10-30T04:38:07;6.40;;;1.75;;
36501;SDS011;25393;46.108;3.390;2022-10-30T04:40:37;5.20;;;2.10;;
36501;SDS011;25393;46.108;3.390;2022-10-30T04:43:05;6.13;;;2.47;;
36501;SDS011;25393;46.108;3.390;2022-10-30T04:45:32;8.02;;;2.10;;
36501;SDS011;25393;46.108;3.390;2022-10-30T04:48:00;4.45;;;1.90;;
36501;SDS011;25393;46.108;3.390;2022-10-30T04:50:32;7.80;;;1.75;;
36501;SDS011;25393;46.108;3.390;2022-10-30T04:53:00;4.03;;;2.55;;
36501;SDS011;25393;46.108;3.390;2022-10-30T04:55:30;12.38;;;2.13;;
36501;SDS011;25393;46.108;3.390;2022-10-30T04:57:58;8.82;;;2.17;;
36501;SDS011;25393;46.108;3.390;2022-10-30T05:00:26;10.30;;;2.65;;
36501;SDS011;25393;46.108;3.390;2022-10-30T05:02:57;6.53;;;1.83;;
36501;SDS011;25393;46.108;3.390;2022-10-30T05:05:28;4.88;;;1.70;;
36501;SDS011;25393;46.108;3.390;2022-10-30T05:07:55;13.40;;;2.97;;
36501;SDS011;25393;46.108;3.390;2022-10-30T05:10:23;9.82;;;2.65;;
36501;SDS011;25393;46.108;3.390;2022-10-30T05:12:50;12.98;;;2.55;;
36501;SDS011;25393;46.108;3.390;2022-10-30T05:15:19;6.93;;;2.05;;
36501;SDS011;25393;46.108;3.390;2022-10-30T05:17:49;11.45;;;2.45;;
36501;SDS011;25393;46.108;3.390;2022-10-30T05:20:16;8.43;;;3.30;;
36501;SDS011;25393;46.108;3.390;2022-10-30T05:22:44;6.80;;;2.03;;
36501;SDS011;25393;46.108;3.390;2022-10-30T05:25:11;9.93;;;2.88;;
36501;SDS011;25393;46.108;3.390;2022-10-30T05:27:38;15.82;;;2.42;;
36501;SDS011;25393;46.108;3.390;2022-10-30T05:30:04;9.45;;;2.95;;
36501;SDS011;25393;46.108;3.390;2022-10-30T05:32:31;13.90;;;2.58;;
36501;SDS011;25393;46.108;3.390;2022-10-30T05:34:58;6.53;;;2.45;;
36501;SDS011;25393;46.108;3.390;2022-10-30T05:37:26;13.07;;;2.85;;
36501;SDS011;25393;46.108;3.390;2022-10-30T05:39:53;16.65;;;3.58;;
36501;SDS011;25393;46.108;3.390;2022-10-30T05:42:20;13.38;;;2.33;;
36501;SDS011;25393;46.108;3.390;2022-10-30T05:44:46;17.30;;;3.28;;
36501;SDS011;25393;46.108;3.390;2022-10-30T05:47:26;6.72;;;2.65;;
36501;SDS011;25393;46.108;3.390;2022-10-30T05:49:52;13.63;;;2.85;;
36501;SDS011;25393;46.108;3.390;2022-10-30T05:52:19;16.98;;;2.47;;
36501;SDS011;25393;46.108;3.390;2022-10-30T05:54:46;14.40;;;2.40;;
36501;SDS011;25393;46.108;3.390;2022-10-30T05:57:13;17.38;;;3.53;;
36501;SDS011;25393;46.108;3.390;2022-10-30T05:59:40;12.10;;;3.25;;
36501;SDS011;25393;46.108;3.390;2022-10-30T06:02:07;11.10;;;2.35;;
36501;SDS011;25393;46.108;3.390;2022-10-30T06:04:34;7.18;;;2.15;;
36501;SDS011;25393;46.108;3.390;2022-10-30T06:07:03;9.73;;;2.05;;
36501;SDS011;25393;46.108;3.390;2022-10-30T06:09:34;19.33;;;2.78;;
36501;SDS011;25393;46.108;3.390;2022-10-30T06:12:06;12.75;;;3.17;;
36501;SDS011;25393;46.108;3.390;2022-10-30T06:14:33;12.55;;;3.03;;
36501;SDS011;25393;46.108;3.390;2022-10-30T06:17:03;16.13;;;3.15;;
36501;SDS011;25393;46.108;3.390;2022-10-30T06:19:30;15.70;;;3.20;;
36501;SDS011;25393;46.108;3.390;2022-10-30T06:21:58;22.80;;;2.72;;
36501;SDS011;25393;46.108;3.390;2022-10-30T06:24:29;19.50;;;3.40;;
36501;SDS011;25393;46.108;3.390;2022-10-30T06:26:58;16.15;;;3.80;;
36501;SDS011;25393;46.108;3.390;2022-10-30T06:29:25;14.50;;;3.35;;
36501;SDS011;25393;46.108;3.390;2022-10-30T06:31:52;9.40;;;2.63;;
36501;SDS011;25393;46.108;3.390;2022-10-30T06:34:19;12.77;;;2.67;;
36501;SDS011;25393;46.108;3.390;2022-10-30T06:36:47;12.52;;;2.92;;
36501;SDS011;25393;46.108;3.390;2022-10-30T06:39:13;14.35;;;2.83;;
36501;SDS011;25393;46.108;3.390;2022-10-30T06:41:40;13.73;;;2.42;;
36501;SDS011;25393;46.108;3.390;2022-10-30T06:44:07;12.02;;;3.13;;
36501;SDS011;25393;46.108;3.390;2022-10-30T06:46:33;7.97;;;2.72;;
36501;SDS011;25393;46.108;3.390;2022-10-30T06:49:00;9.73;;;2.53;;
36501;SDS011;25393;46.108;3.390;2022-10-30T06:51:29;12.93;;;3.05;;
36501;SDS011;25393;46.108;3.390;2022-10-30T06:54:05;12.05;;;2.67;;
36501;SDS011;25393;46.108;3.390;2022-10-30T06:56:35;13.82;;;3.00;;
36501;SDS011;25393;46.108;3.390;2022-10-30T06:59:04;10.43;;;3.13;;
36501;SDS011;25393;46.108;3.390;2022-10-30T07:01:34;10.23;;;2.53;;
36501;SDS011;25393;46.108;3.390;2022-10-30T07:04:04;9.65;;;2.40;;
36501;SDS011;25393;46.108;3.390;2022-10-30T07:06:31;9.82;;;3.03;;
36501;SDS011;25393;46.108;3.390;2022-10-30T07:08:59;10.20;;;2.58;;
36501;SDS011;25393;46.108;3.390;2022-10-30T07:11:25;14.55;;;3.35;;
36501;SDS011;25393;46.108;3.390;2022-10-30T07:13:52;19.33;;;3.75;;
36501;SDS011;25393;46.108;3.390;2022-10-30T07:16:18;9.13;;;3.10;;
36501;SDS011;25393;46.108;3.390;2022-10-30T07:18:45;12.02;;;2.63;;
36501;SDS011;25393;46.108;3.390;2022-10-30T07:21:11;14.18;;;3.10;;
36501;SDS011;25393;46.108;3.390;2022-10-30T07:23:55;12.52;;;3.35;;
36501;SDS011;25393;46.108;3.390;2022-10-30T07:26:22;12.63;;;3.45;;
36501;SDS011;25393;46.108;3.390;2022-10-30T07:28:48;11.13;;;3.58;;
36501;SDS011;25393;46.108;3.390;2022-10-30T07:31:15;10.88;;;2.63;;
36501;SDS011;25393;46.108;3.390;2022-10-30T07:34:00;11.88;;;3.05;;
36501;SDS011;25393;46.108;3.390;2022-10-30T07:36:29;12.63;;;2.35;;
36501;SDS011;25393;46.108;3.390;2022-10-30T07:38:55;18.58;;;3.28;;
36501;SDS011;25393;46.108;3.390;2022-10-30T07:41:22;10.25;;;2.50;;
36501;SDS011;25393;46.108;3.390;2022-10-30T07:43:48;14.60;;;2.65;;
36501;SDS011;25393;46.108;3.390;2022-10-30T07:46:15;13.07;;;3.05;;
36501;SDS011;25393;46.108;3.390;2022-10-30T07:48:42;14.57;;;3.88;;
36501;SDS011;25393;46.108;3.390;2022-10-30T07:51:08;9.43;;;2.40;;
36501;SDS011;25393;46.108;3.390;2022-10-30T07:53:35;11.13;;;3.22;;
36501;SDS011;25393;46.108;3.390;2022-10-30T07:56:04;20.75;;;2.40;;
36501;SDS011;25393;46.108;3.390;2022-10-30T07:58:34;9.93;;;2.40;;
36501;SDS011;25393;46.108;3.390;2022-10-30T08:01:10;10.80;;;2.67;;
36501;SDS011;25393;46.108;3.390;2022-10-30T08:03:36;10.10;;;2.85;;
36501;SDS011;25393;46.108;3.390;2022-10-30T08:06:03;12.50;;;2.30;;
36501;SDS011;25393;46.108;3.390;2022-10-30T08:08:30;11.23;;;3.35;;
36501;SDS011;25393;46.108;3.390;2022-10-30T08:10:58;7.90;;;2.17;;
36501;SDS011;25393;46.108;3.390;2022-10-30T08:13:25;18.88;;;3.45;;
36501;SDS011;25393;46.108;3.390;2022-10-30T08:15:51;11.63;;;3.20;;
36501;SDS011;25393;46.108;3.390;2022-10-30T08:18:18;8.60;;;2.45;;
36501;SDS011;25393;46.108;3.390;2022-10-30T08:20:47;11.20;;;3.22;;
36501;SDS011;25393;46.108;3.390;2022-10-30T08:23:16;13.63;;;2.10;;
36501;SDS011;25393;46.108;3.390;2022-10-30T08:25:44;12.73;;;2.22;;
36501;SDS011;25393;46.108;3.390;2022-10-30T08:28:12;15.93;;;2.67;;
36501;SDS011;25393;46.108;3.390;2022-10-30T08:30:39;13.07;;;2.83;;
36501;SDS011;25393;46.108;3.390;2022-10-30T08:33:09;7.18;;;2.20;;
36501;SDS011;25393;46.108;3.390;2022-10-30T08:35:45;9.85;;;2.80;;
36501;SDS011;25393;46.108;3.390;2022-10-30T08:38:13;7.93;;;2.60;;
36501;SDS011;25393;46.108;3.390;2022-10-30T08:40:39;19.60;;;3.28;;
36501;SDS011;25393;46.108;3.390;2022-10-30T08:43:06;14.20;;;2.42;;
36501;SDS011;25393;46.108;3.390;2022-10-30T08:45:33;10.65;;;2.60;;
36501;SDS011;25393;46.108;3.390;2022-10-30T08:48:01;18.17;;;2.33;;
36501;SDS011;25393;46.108;3.390;2022-10-30T08:50:32;9.07;;;2.13;;
36501;SDS011;25393;46.108;3.390;2022-10-30T08:53:03;12.43;;;2.70;;
36501;SDS011;25393;46.108;3.390;2022-10-30T08:55:31;17.92;;;2.58;;
36501;SDS011;25393;46.108;3.390;2022-10-30T08:57:59;10.50;;;2.13;;
36501;SDS011;25393;46.108;3.390;2022-10-30T09:00:29;21.33;;;3.95;;
36501;SDS011;25393;46.108;3.390;2022-10-30T09:02:57;11.98;;;2.70;;
36501;SDS011;25393;46.108;3.390;2022-10-30T09:05:24;13.27;;;2.42;;
36501;SDS011;25393;46.108;3.390;2022-10-30T09:07:57;15.93;;;2.92;;
36501;SDS011;25393;46.108;3.390;2022-10-30T09:10:27;15.35;;;2.90;;
36501;SDS011;25393;46.108;3.390;2022-10-30T09:12:55;14.23;;;12.75;;
36501;SDS011;25393;46.108;3.390;2022-10-30T09:15:23;12.75;;;4.05;;
36501;SDS011;25393;46.108;3.390;2022-10-30T09:17:57;16.25;;;5.70;;
36501;SDS011;25393;46.108;3.390;2022-10-30T09:20:25;12.07;;;4.63;;
36501;SDS011;25393;46.108;3.390;2022-10-30T09:22:53;12.23;;;4.50;;
36501;SDS011;25393;46.108;3.390;2022-10-30T09:25:20;15.27;;;4.53;;
36501;SDS011;25393;46.108;3.390;2022-10-30T09:27:52;11.70;;;5.10;;
36501;SDS011;25393;46.108;3.390;2022-10-30T09:30:19;11.23;;;3.83;;
36501;SDS011;25393;46.108;3.390;2022-10-30T09:32:52;10.65;;;4.13;;
36501;SDS011;25393;46.108;3.390;2022-10-30T09:35:23;9.73;;;4.35;;
36501;SDS011;25393;46.108;3.390;2022-10-30T09:37:50;11.35;;;4.35;;
36501;SDS011;25393;46.108;3.390;2022-10-30T09:40:18;8.40;;;4.80;;
36501;SDS011;25393;46.108;3.390;2022-10-30T09:42:47;10.57;;;4.68;;
36501;SDS011;25393;46.108;3.390;2022-10-30T09:45:27;14.18;;;4.88;;
36501;SDS011;25393;46.108;3.390;2022-10-30T09:56:40;21.05;;;5.18;;
36501;SDS011;25393;46.108;3.390;2022-10-30T10:01:51;14.88;;;4.60;;
36501;SDS011;25393;46.108;3.390;2022-10-30T10:04:43;16.08;;;6.90;;
36501;SDS011;25393;46.108;3.390;2022-10-30T10:07:21;11.60;;;4.55;;
36501;SDS011;25393;46.108;3.390;2022-10-30T10:09:54;19.98;;;5.20;;
36501;SDS011;25393;46.108;3.390;2022-10-30T10:12:34;11.82;;;4.63;;
36501;SDS011;25393;46.108;3.390;2022-10-30T10:15:14;11.23;;;4.65;;
36501;SDS011;25393;46.108;3.390;2022-10-30T10:17:46;9.35;;;5.10;;
36501;SDS011;25393;46.108;3.390;2022-10-30T10:20:14;12.75;;;4.38;;
36501;SDS011;25393;46.108;3.390;2022-10-30T10:22:52;12.38;;;4.72;;
36501;SDS011;25393;46.108;3.390;2022-10-30T10:25:23;9.57;;;4.30;;
36501;SDS011;25393;46.108;3.390;2022-10-30T10:28:04;10.75;;;3.72;;
36501;SDS011;25393;46.108;3.390;2022-10-30T10:30:41;14.23;;;4.95;;
36501;SDS011;25393;46.108;3.390;2022-10-30T10:38:50;13.82;;;4.40;;
36501;SDS011;25393;46.108;3.390;2022-10-30T10:49:47;15.10;;;4.53;;
36501;SDS011;25393;46.108;3.390;2022-10-30T10:52:36;23.13;;;5.85;;
36501;SDS011;25393;46.108;3.390;2022-10-30T10:55:13;10.82;;;4.45;;
36501;SDS011;25393;46.108;3.390;2022-10-30T10:57:43;13.35;;;4.85;;
36501;SDS011;25393;46.108;3.390;2022-10-30T11:00:14;16.27;;;4.70;;
36501;SDS011;25393;46.108;3.390;2022-10-30T11:08:29;14.90;;;4.53;;
36501;SDS011;25393;46.108;3.390;2022-10-30T11:11:02;9.80;;;4.35;;
36501;SDS011;25393;46.108;3.390;2022-10-30T11:13:33;10.27;;;4.97;;
36501;SDS011;25393;46.108;3.390;2022-10-30T11:18:58;12.30;;;5.35;;
36501;SDS011;25393;46.108;3.390;2022-10-30T11:21:34;13.98;;;5.00;;
36501;SDS011;25393;46.108;3.390;2022-10-30T11:24:26;12.93;;;4.57;;
36501;SDS011;25393;46.108;3.390;2022-10-30T11:26:55;15.10;;;3.97;;
36501;SDS011;25393;46.108;3.390;2022-10-30T11:29:27;16.15;;;5.05;;
36501;SDS011;25393;46.108;3.390;2022-10-30T11:32:01;13.43;;;4.88;;
36501;SDS011;25393;46.108;3.390;2022-10-30T11:34:42;6.97;;;4.05;;
36501;SDS011;25393;46.108;3.390;2022-10-30T11:37:27;17.33;;;4.80;;
36501;SDS011;25393;46.108;3.390;2022-10-30T11:40:06;15.52;;;4.45;;
36501;SDS011;25393;46.108;3.390;2022-10-30T11:42:38;11.52;;;4.20;;
36501;SDS011;25393;46.108;3.390;2022-10-30T11:45:17;16.42;;;4.95;;
36501;SDS011;25393;46.108;3.390;2022-10-30T11:47:49;10.93;;;3.92;;
36501;SDS011;25393;46.108;3.390;2022-10-30T11:50:18;7.38;;;4.40;;
36501;SDS011;25393;46.108;3.390;2022-10-30T11:52:49;10.43;;;4.47;;
36501;SDS011;25393;46.108;3.390;2022-10-30T11:55:19;9.88;;;4.30;;
36501;SDS011;25393;46.108;3.390;2022-10-30T11:57:54;13.13;;;4.40;;
36501;SDS011;25393;46.108;3.390;2022-10-30T12:00:23;9.48;;;4.57;;
36501;SDS011;25393;46.108;3.390;2022-10-30T12:02:51;16.92;;;4.85;;
36501;SDS011;25393;46.108;3.390;2022-10-30T12:07:52;10.73;;;4.10;;
36501;SDS011;25393;46.108;3.390;2022-10-30T12:13:18;8.05;;;4.00;;
36501;SDS011;25393;46.108;3.390;2022-10-30T12:15:48;7.57;;;3.90;;
36501;SDS011;25393;46.108;3.390;2022-10-30T12:18:34;12.27;;;4.57;;
36501;SDS011;25393;46.108;3.390;2022-10-30T12:21:01;5.97;;;3.60;;
36501;SDS011;25393;46.108;3.390;2022-10-30T12:23:35;8.85;;;4.03;;
36501;SDS011;25393;46.108;3.390;2022-10-30T12:26:10;8.82;;;4.13;;
36501;SDS011;25393;46.108;3.390;2022-10-30T12:28:37;10.10;;;4.07;;
36501;SDS011;25393;46.108;3.390;2022-10-30T12:31:12;6.57;;;4.15;;
36501;SDS011;25393;46.108;3.390;2022-10-30T12:36:39;9.52;;;3.55;;
36501;SDS011;25393;46.108;3.390;2022-10-30T12:39:24;8.15;;;4.43;;
36501;SDS011;25393;46.108;3.390;2022-10-30T12:42:00;8.20;;;3.80;;
36501;SDS011;25393;46.108;3.390;2022-10-30T12:44:36;10.30;;;3.95;;
36501;SDS011;25393;46.108;3.390;2022-10-30T12:49:50;5.10;;;3.58;;
36501;SDS011;25393;46.108;3.390;2022-10-30T12:52:28;7.15;;;3.80;;
36501;SDS011;25393;46.108;3.390;2022-10-30T12:57:36;7.97;;;3.63;;
36501;SDS011;25393;46.108;3.390;2022-10-30T13:00:12;13.27;;;4.32;;
36501;SDS011;25393;46.108;3.390;2022-10-30T13:02:46;15.13;;;4.25;;
36501;SDS011;25393;46.108;3.390;2022-10-30T13:05:38;7.63;;;4.40;;
36501;SDS011;25393;46.108;3.390;2022-10-30T13:11:01;8.60;;;3.58;;
36501;SDS011;25393;46.108;3.390;2022-10-30T13:13:41;9.55;;;4.00;;
36501;SDS011;25393;46.108;3.390;2022-10-30T13:16:13;18.63;;;4.32;;
36501;SDS011;25393;46.108;3.390;2022-10-30T13:18:44;8.05;;;4.22;;
36501;SDS011;25393;46.108;3.390;2022-10-30T13:29:20;11.38;;;4.57;;
36501;SDS011;25393;46.108;3.390;2022-10-30T13:41:21;11.43;;;4.15;;
36501;SDS011;25393;46.108;3.390;2022-10-30T13:43:57;9.48;;;4.32;;
36501;SDS011;25393;46.108;3.390;2022-10-30T13:57:18;11.07;;;4.13;;
36501;SDS011;25393;46.108;3.390;2022-10-30T13:59:56;14.15;;;3.83;;
36501;SDS011;25393;46.108;3.390;2022-10-30T14:02:39;13.65;;;3.58;;
36501;SDS011;25393;46.108;3.390;2022-10-30T14:13:13;11.18;;;3.40;;
36501;SDS011;25393;46.108;3.390;2022-10-30T14:15:43;7.70;;;3.35;;
36501;SDS011;25393;46.108;3.390;2022-10-30T14:25:42;10.75;;;3.40;;
36501;SDS011;25393;46.108;3.390;2022-10-30T14:28:21;8.48;;;3.40;;
36501;SDS011;25393;46.108;3.390;2022-10-30T14:30:47;14.52;;;4.25;;
36501;SDS011;25393;46.108;3.390;2022-10-30T14:38:41;11.18;;;3.60;;
36501;SDS011;25393;46.108;3.390;2022-10-30T14:41:28;8.82;;;3.45;;
36501;SDS011;25393;46.108;3.390;2022-10-30T14:49:27;12.57;;;4.75;;
36501;SDS011;25393;46.108;3.390;2022-10-30T14:52:42;5.72;;;3.30;;
36501;SDS011;25393;46.108;3.390;2022-10-30T15:00:43;11.10;;;3.85;;
36501;SDS011;25393;46.108;3.390;2022-10-30T15:08:55;16.60;;;4.13;;
36501;SDS011;25393;46.108;3.390;2022-10-30T15:14:29;12.48;;;4.57;;
36501;SDS011;25393;46.108;3.390;2022-10-30T15:17:31;17.65;;;4.25;;
36501;SDS011;25393;46.108;3.390;2022-10-30T15:20:04;11.95;;;4.32;;
36501;SDS011;25393;46.108;3.390;2022-10-30T15:22:40;9.57;;;4.35;;
36501;SDS011;25393;46.108;3.390;2022-10-30T15:25:19;9.95;;;3.78;;
36501;SDS011;25393;46.108;3.390;2022-10-30T15:27:49;12.57;;;4.00;;
36501;SDS011;25393;46.108;3.390;2022-10-30T15:30:20;9.50;;;3.88;;
36501;SDS011;25393;46.108;3.390;2022-10-30T15:32:49;19.98;;;4.30;;
36501;SDS011;25393;46.108;3.390;2022-10-30T15:35:20;6.57;;;4.15;;
36501;SDS011;25393;46.108;3.390;2022-10-30T15:37:55;12.15;;;4.50;;
36501;SDS011;25393;46.108;3.390;2022-10-30T15:40:22;7.65;;;4.32;;
36501;SDS011;25393;46.108;3.390;2022-10-30T15:42:50;10.68;;;4.10;;
36501;SDS011;25393;46.108;3.390;2022-10-30T15:45:21;15.95;;;4.70;;
36501;SDS011;25393;46.108;3.390;2022-10-30T15:48:37;13.20;;;4.40;;
36501;SDS011;25393;46.108;3.390;2022-10-30T15:50:52;12.20;;;4.78;;
36501;SDS011;25393;46.108;3.390;2022-10-30T15:56:40;7.60;;;3.90;;
36501;SDS011;25393;46.108;3.390;2022-10-30T15:59:30;12.70;;;4.70;;
36501;SDS011;25393;46.108;3.390;2022-10-30T16:02:00;11.75;;;4.60;;
36501;SDS011;25393;46.108;3.390;2022-10-30T16:04:31;12.63;;;4.70;;
36501;SDS011;25393;46.108;3.390;2022-10-30T16:07:01;10.93;;;4.15;;
36501;SDS011;25393;46.108;3.390;2022-10-30T16:09:36;12.50;;;4.22;;
36501;SDS011;25393;46.108;3.390;2022-10-30T16:12:05;9.45;;;4.45;;
36501;SDS011;25393;46.108;3.390;2022-10-30T16:14:37;12.40;;;4.47;;
36501;SDS011;25393;46.108;3.390;2022-10-30T16:17:07;11.68;;;4.97;;
36501;SDS011;25393;46.108;3.390;2022-10-30T16:19:42;13.90;;;4.78;;
36501;SDS011;25393;46.108;3.390;2022-10-30T16:22:13;10.77;;;4.55;;
36501;SDS011;25393;46.108;3.390;2022-10-30T16:24:44;16.80;;;4.68;;
36501;SDS011;25393;46.108;3.390;2022-10-30T16:27:14;12.82;;;4.78;;
36501;SDS011;25393;46.108;3.390;2022-10-30T16:29:50;9.68;;;4.30;;
36501;SDS011;25393;46.108;3.390;2022-10-30T16:32:23;10.43;;;4.00;;
36501;SDS011;25393;46.108;3.390;2022-10-30T16:34:53;10.18;;;4.18;;
36501;SDS011;25393;46.108;3.390;2022-10-30T16:37:35;8.93;;;4.43;;
36501;SDS011;25393;46.108;3.390;2022-10-30T16:40:13;11.65;;;4.63;;
36501;SDS011;25393;46.108;3.390;2022-10-30T16:42:45;16.27;;;4.93;;
36501;SDS011;25393;46.108;3.390;2022-10-30T16:47:51;14.18;;;4.78;;
36501;SDS011;25393;46.108;3.390;2022-10-30T16:50:35;15.32;;;4.57;;
36501;SDS011;25393;46.108;3.390;2022-10-30T16:53:06;12.30;;;4.63;;
36501;SDS011;25393;46.108;3.390;2022-10-30T16:55:40;10.10;;;5.10;;
36501;SDS011;25393;46.108;3.390;2022-10-30T16:58:08;13.88;;;4.50;;
36501;SDS011;25393;46.108;3.390;2022-10-30T17:00:47;11.57;;;4.53;;
36501;SDS011;25393;46.108;3.390;2022-10-30T17:03:18;10.25;;;5.20;;
36501;SDS011;25393;46.108;3.390;2022-10-30T17:05:57;14.88;;;4.45;;
36501;SDS011;25393;46.108;3.390;2022-10-30T17:08:41;10.07;;;4.40;;
36501;SDS011;25393;46.108;3.390;2022-10-30T17:11:16;12.15;;;5.03;;
36501;SDS011;25393;46.108;3.390;2022-10-30T17:16:24;8.70;;;4.40;;
36501;SDS011;25393;46.108;3.390;2022-10-30T17:18:54;7.75;;;4.00;;
36501;SDS011;25393;46.108;3.390;2022-10-30T17:21:24;8.65;;;4.65;;
36501;SDS011;25393;46.108;3.390;2022-10-30T17:23:55;10.15;;;4.35;;
36501;SDS011;25393;46.108;3.390;2022-10-30T17:26:24;15.48;;;4.53;;
36501;SDS011;25393;46.108;3.390;2022-10-30T17:28:53;13.70;;;4.55;;
36501;SDS011;25393;46.108;3.390;2022-10-30T17:31:24;12.05;;;4.75;;
36501;SDS011;25393;46.108;3.390;2022-10-30T17:34:14;12.25;;;5.05;;
36501;SDS011;25393;46.108;3.390;2022-10-30T17:36:43;12.20;;;4.50;;